TimeCAT,TemperatureF,Dew PointF,Humidity,Sea Level PressureIn,VisibilityMPH,Wind Direction,Wind SpeedMPH,Gust SpeedMPH,PrecipitationIn,Events,Conditions,WindDirDegrees,DateUTC
12:00 AM,60.8,53.6,77,30.33,-9999.0,East,11.5,-,N/A,,Clear,100,2013-05-05 22:00:00
1:00 AM,59.0,53.6,82,30.30,-9999.0,East,11.5,-,N/A,,Clear,90,2013-05-05 23:00:00
2:00 AM,57.2,51.8,82,30.30,-9999.0,ESE,11.5,-,N/A,,Clear,110,2013-05-06 00:00:00
3:00 AM,55.4,50.0,82,30.30,-9999.0,ESE,9.2,-,N/A,,Clear,110,2013-05-06 01:00:00
4:00 AM,55.4,50.0,82,30.33,-9999.0,East,8.1,-,N/A,,Clear,90,2013-05-06 02:00:00
5:00 AM,53.6,50.0,88,30.33,-9999.0,ESE,6.9,-,N/A,,Clear,110,2013-05-06 03:00:00
6:00 AM,50.0,48.2,94,30.36,-9999.0,SE,5.8,-,N/A,,Clear,140,2013-05-06 04:00:00
7:00 AM,48.2,48.2,100,30.36,-9999.0,SE,4.6,-,N/A,,Clear,130,2013-05-06 05:00:00
8:00 AM,55,48,71,,6,East,15.0,,,,,90,2013-05-06 06:00:00
8:00 AM,55.4,48.2,77,30.39,-9999.0,East,15.0,-,N/A,,Clear,90,2013-05-06 06:00:00
10:00 AM,64.4,46.4,52,30.42,-9999.0,East,16.1,-,N/A,,Clear,80,2013-05-06 08:00:00
11:00 AM,68.0,46.4,46,30.39,-9999.0,East,16.1,-,N/A,,Clear,100,2013-05-06 09:00:00
12:00 PM,69.8,46.4,43,30.36,-9999.0,East,17.3,31.1,N/A,,Clear,80,2013-05-06 10:00:00
1:00 PM,71.6,44.6,38,30.33,-9999.0,East,16.1,-,N/A,,Clear,100,2013-05-06 11:00:00
2:00 PM,74,46,26,,6,ESE,12.7,,,,,110,2013-05-06 12:00:00
2:00 PM,73.4,46.4,38,30.30,-9999.0,ESE,12.7,-,N/A,,Clear,110,2013-05-06 12:00:00
3:00 PM,73.4,46.4,38,30.30,-9999.0,ESE,16.1,-,N/A,,Clear,110,2013-05-06 13:00:00
4:00 PM,71.6,46.4,41,30.30,-9999.0,ESE,11.5,-,N/A,,Clear,110,2013-05-06 14:00:00
5:00 PM,71.6,46.4,41,30.30,-9999.0,East,16.1,-,N/A,,Clear,90,2013-05-06 15:00:00
6:00 PM,68.0,39.2,35,30.33,-9999.0,ESE,8.1,-,N/A,,Clear,120,2013-05-06 16:00:00
7:00 PM,64.4,41.0,42,30.33,-9999.0,ESE,11.5,-,N/A,,Clear,120,2013-05-06 17:00:00
8:00 PM,62.6,41.0,45,30.36,-9999.0,ESE,9.2,-,N/A,,Clear,110,2013-05-06 18:00:00
11:00 PM,57.2,39.2,51,30.39,-9999.0,ESE,4.6,-,N/A,,Clear,110,2013-05-06 21:00:00